sensor_id;sensor_type;location;lat;lon;timestamp;temperature;humidity
9393;DHT22;4736;52.508;13.422;2023-02-19T00:02:25;5.40;74.90
9393;DHT22;4736;52.508;13.422;2023-02-19T00:05:28;5.30;74.90
9393;DHT22;4736;52.508;13.422;2023-02-19T00:08:35;5.30;75.00
9393;DHT22;4736;52.508;13.422;2023-02-19T00:11:39;5.30;75.20
9393;DHT22;4736;52.508;13.422;2023-02-19T00:14:43;5.30;75.30
9393;DHT22;4736;52.508;13.422;2023-02-19T00:17:46;5.30;75.40
9393;DHT22;4736;52.508;13.422;2023-02-19T00:20:49;5.30;75.40
9393;DHT22;4736;52.508;13.422;2023-02-19T00:23:55;5.30;75.40
9393;DHT22;4736;52.508;13.422;2023-02-19T00:26:59;5.40;75.30
9393;DHT22;4736;52.508;13.422;2023-02-19T00:30:02;5.30;75.00
9393;DHT22;4736;52.508;13.422;2023-02-19T00:33:06;5.30;75.20
9393;DHT22;4736;52.508;13.422;2023-02-19T00:36:10;5.30;75.20
9393;DHT22;4736;52.508;13.422;2023-02-19T00:39:15;5.30;75.10
9393;DHT22;4736;52.508;13.422;2023-02-19T00:42:19;5.30;75.00
9393;DHT22;4736;52.508;13.422;2023-02-19T00:45:22;5.30;75.10
9393;DHT22;4736;52.508;13.422;2023-02-19T00:48:25;5.30;75.10
9393;DHT22;4736;52.508;13.422;2023-02-19T00:51:30;5.50;75.00
9393;DHT22;4736;52.508;13.422;2023-02-19T00:54:35;5.40;75.10
9393;DHT22;4736;52.508;13.422;2023-02-19T00:57:38;5.40;75.30
9393;DHT22;4736;52.508;13.422;2023-02-19T01:00:42;5.30;75.50
9393;DHT22;4736;52.508;13.422;2023-02-19T01:03:45;5.30;75.70
9393;DHT22;4736;52.508;13.422;2023-02-19T01:06:49;5.30;75.70
9393;DHT22;4736;52.508;13.422;2023-02-19T01:09:54;5.30;75.80
9393;DHT22;4736;52.508;13.422;2023-02-19T01:12:57;5.30;76.20
9393;DHT22;4736;52.508;13.422;2023-02-19T01:16:03;5.30;76.40
9393;DHT22;4736;52.508;13.422;2023-02-19T01:19:06;5.40;76.40
9393;DHT22;4736;52.508;13.422;2023-02-19T01:22:09;5.50;76.40
9393;DHT22;4736;52.508;13.422;2023-02-19T01:25:14;5.40;76.50
9393;DHT22;4736;52.508;13.422;2023-02-19T01:28:17;5.40;76.50
9393;DHT22;4736;52.508;13.422;2023-02-19T01:31:22;5.40;76.80
9393;DHT22;4736;52.508;13.422;2023-02-19T01:34:26;5.40;76.80
9393;DHT22;4736;52.508;13.422;2023-02-19T01:37:34;5.40;76.90
9393;DHT22;4736;52.508;13.422;2023-02-19T01:40:39;5.50;76.50
9393;DHT22;4736;52.508;13.422;2023-02-19T01:43:57;5.40;76.30
9393;DHT22;4736;52.508;13.422;2023-02-19T01:47:00;5.30;76.20
9393;DHT22;4736;52.508;13.422;2023-02-19T01:50:04;5.30;76.10
9393;DHT22;4736;52.508;13.422;2023-02-19T01:53:08;5.30;76.10
9393;DHT22;4736;52.508;13.422;2023-02-19T01:56:15;5.30;76.10
9393;DHT22;4736;52.508;13.422;2023-02-19T01:59:20;5.30;76.20
9393;DHT22;4736;52.508;13.422;2023-02-19T02:02:23;5.30;76.20
9393;DHT22;4736;52.508;13.422;2023-02-19T02:05:43;5.20;76.30
9393;DHT22;4736;52.508;13.422;2023-02-19T02:08:49;5.20;76.40
9393;DHT22;4736;52.508;13.422;2023-02-19T02:12:13;5.20;76.50
9393;DHT22;4736;52.508;13.422;2023-02-19T02:15:16;5.20;76.40
9393;DHT22;4736;52.508;13.422;2023-02-19T02:18:27;5.20;75.70
9393;DHT22;4736;52.508;13.422;2023-02-19T02:21:42;5.20;75.40
9393;DHT22;4736;52.508;13.422;2023-02-19T02:25:06;5.10;75.20
9393;DHT22;4736;52.508;13.422;2023-02-19T02:28:26;5.00;75.20
9393;DHT22;4736;52.508;13.422;2023-02-19T02:31:38;5.00;75.50
9393;DHT22;4736;52.508;13.422;2023-02-19T02:34:48;5.00;75.20
9393;DHT22;4736;52.508;13.422;2023-02-19T02:37:55;5.00;75.30
9393;DHT22;4736;52.508;13.422;2023-02-19T02:41:01;4.90;75.20
9393;DHT22;4736;52.508;13.422;2023-02-19T02:44:06;4.90;75.30
9393;DHT22;4736;52.508;13.422;2023-02-19T02:47:10;4.90;74.80
9393;DHT22;4736;52.508;13.422;2023-02-19T02:50:36;4.90;74.60
9393;DHT22;4736;52.508;13.422;2023-02-19T02:53:44;4.90;74.30
9393;DHT22;4736;52.508;13.422;2023-02-19T02:57:10;4.80;74.50
9393;DHT22;4736;52.508;13.422;2023-02-19T03:00:22;4.70;75.00
9393;DHT22;4736;52.508;13.422;2023-02-19T03:03:28;4.70;75.40
9393;DHT22;4736;52.508;13.422;2023-02-19T03:06:34;4.70;75.50
9393;DHT22;4736;52.508;13.422;2023-02-19T03:09:41;4.70;75.50
9393;DHT22;4736;52.508;13.422;2023-02-19T03:12:44;4.70;75.30
9393;DHT22;4736;52.508;13.422;2023-02-19T03:16:09;4.70;75.10
9393;DHT22;4736;52.508;13.422;2023-02-19T03:19:36;4.70;75.00
9393;DHT22;4736;52.508;13.422;2023-02-19T03:22:44;4.60;75.00
9393;DHT22;4736;52.508;13.422;2023-02-19T03:25:48;4.50;74.80
9393;DHT22;4736;52.508;13.422;2023-02-19T03:29:05;4.50;74.80
9393;DHT22;4736;52.508;13.422;2023-02-19T03:32:27;4.40;75.30
9393;DHT22;4736;52.508;13.422;2023-02-19T03:35:35;4.30;75.80
9393;DHT22;4736;52.508;13.422;2023-02-19T03:38:41;4.30;75.70
9393;DHT22;4736;52.508;13.422;2023-02-19T03:41:54;4.30;75.80
9393;DHT22;4736;52.508;13.422;2023-02-19T03:45:09;4.20;75.60
9393;DHT22;4736;52.508;13.422;2023-02-19T03:48:32;4.10;75.70
9393;DHT22;4736;52.508;13.422;2023-02-19T03:51:40;4.00;75.90
9393;DHT22;4736;52.508;13.422;2023-02-19T03:54:51;3.90;75.20
9393;DHT22;4736;52.508;13.422;2023-02-19T03:58:01;3.90;75.00
9393;DHT22;4736;52.508;13.422;2023-02-19T04:01:09;3.90;75.30
9393;DHT22;4736;52.508;13.422;2023-02-19T04:04:18;3.80;74.70
9393;DHT22;4736;52.508;13.422;2023-02-19T04:07:27;3.70;74.90
9393;DHT22;4736;52.508;13.422;2023-02-19T04:10:33;3.60;75.20
9393;DHT22;4736;52.508;13.422;2023-02-19T04:13:42;3.70;75.40
9393;DHT22;4736;52.508;13.422;2023-02-19T04:16:48;3.50;75.80
9393;DHT22;4736;52.508;13.422;2023-02-19T04:19:54;3.50;76.00
9393;DHT22;4736;52.508;13.422;2023-02-19T04:23:01;3.50;76.00
9393;DHT22;4736;52.508;13.422;2023-02-19T04:26:06;3.50;76.20
9393;DHT22;4736;52.508;13.422;2023-02-19T04:29:10;3.50;75.50
9393;DHT22;4736;52.508;13.422;2023-02-19T04:32:13;3.40;75.80
9393;DHT22;4736;52.508;13.422;2023-02-19T04:35:18;3.30;76.00
9393;DHT22;4736;52.508;13.422;2023-02-19T04:38:23;3.30;75.50
9393;DHT22;4736;52.508;13.422;2023-02-19T04:41:26;3.30;75.60
9393;DHT22;4736;52.508;13.422;2023-02-19T04:44:30;3.30;76.00
9393;DHT22;4736;52.508;13.422;2023-02-19T04:47:33;3.20;75.90
9393;DHT22;4736;52.508;13.422;2023-02-19T04:50:37;3.20;76.00
9393;DHT22;4736;52.508;13.422;2023-02-19T04:53:42;3.20;76.30
9393;DHT22;4736;52.508;13.422;2023-02-19T04:56:50;3.20;76.10
9393;DHT22;4736;52.508;13.422;2023-02-19T04:59:53;3.20;76.10
9393;DHT22;4736;52.508;13.422;2023-02-19T05:02:56;3.20;76.00
9393;DHT22;4736;52.508;13.422;2023-02-19T05:06:02;3.10;76.20
9393;DHT22;4736;52.508;13.422;2023-02-19T05:09:07;3.10;76.40
9393;DHT22;4736;52.508;13.422;2023-02-19T05:12:10;3.10;76.60
9393;DHT22;4736;52.508;13.422;2023-02-19T05:15:14;3.20;76.80
9393;DHT22;4736;52.508;13.422;2023-02-19T05:18:17;3.30;76.80
9393;DHT22;4736;52.508;13.422;2023-02-19T05:21:21;3.20;76.80
9393;DHT22;4736;52.508;13.422;2023-02-19T05:24:26;3.20;76.80
9393;DHT22;4736;52.508;13.422;2023-02-19T05:27:31;3.10;76.90
9393;DHT22;4736;52.508;13.422;2023-02-19T05:30:34;3.20;76.90
9393;DHT22;4736;52.508;13.422;2023-02-19T05:33:39;3.20;76.90
9393;DHT22;4736;52.508;13.422;2023-02-19T05:36:44;3.10;76.70
9393;DHT22;4736;52.508;13.422;2023-02-19T05:39:51;3.10;77.00
9393;DHT22;4736;52.508;13.422;2023-02-19T05:42:54;3.10;77.00
9393;DHT22;4736;52.508;13.422;2023-02-19T05:45:59;3.10;76.60
9393;DHT22;4736;52.508;13.422;2023-02-19T05:49:02;3.10;76.50
9393;DHT22;4736;52.508;13.422;2023-02-19T05:52:05;3.10;76.70
9393;DHT22;4736;52.508;13.422;2023-02-19T05:55:10;3.10;76.80
9393;DHT22;4736;52.508;13.422;2023-02-19T05:58:13;3.10;76.90
9393;DHT22;4736;52.508;13.422;2023-02-19T06:01:16;3.10;76.90
9393;DHT22;4736;52.508;13.422;2023-02-19T06:04:20;3.10;76.50
9393;DHT22;4736;52.508;13.422;2023-02-19T06:07:24;3.10;76.70
9393;DHT22;4736;52.508;13.422;2023-02-19T06:10:28;3.10;76.40
9393;DHT22;4736;52.508;13.422;2023-02-19T06:13:31;3.00;76.60
9393;DHT22;4736;52.508;13.422;2023-02-19T06:16:34;3.00;76.40
9393;DHT22;4736;52.508;13.422;2023-02-19T06:19:37;2.90;76.50
9393;DHT22;4736;52.508;13.422;2023-02-19T06:22:40;3.00;76.40
9393;DHT22;4736;52.508;13.422;2023-02-19T06:25:45;3.00;76.40
9393;DHT22;4736;52.508;13.422;2023-02-19T06:28:49;3.00;76.50
9393;DHT22;4736;52.508;13.422;2023-02-19T06:31:53;2.90;76.70
9393;DHT22;4736;52.508;13.422;2023-02-19T06:34:56;2.90;76.90
9393;DHT22;4736;52.508;13.422;2023-02-19T06:37:59;3.00;76.90
9393;DHT22;4736;52.508;13.422;2023-02-19T06:41:05;3.00;76.50
9393;DHT22;4736;52.508;13.422;2023-02-19T06:44:10;3.00;76.50
9393;DHT22;4736;52.508;13.422;2023-02-19T06:47:13;3.00;76.60
9393;DHT22;4736;52.508;13.422;2023-02-19T06:50:16;3.00;76.20
9393;DHT22;4736;52.508;13.422;2023-02-19T06:53:19;3.00;76.10
9393;DHT22;4736;52.508;13.422;2023-02-19T06:56:42;3.10;76.20
9393;DHT22;4736;52.508;13.422;2023-02-19T06:59:49;3.10;76.10
9393;DHT22;4736;52.508;13.422;2023-02-19T07:02:55;3.10;76.20
9393;DHT22;4736;52.508;13.422;2023-02-19T07:05:58;3.10;76.40
9393;DHT22;4736;52.508;13.422;2023-02-19T07:09:03;3.10;76.30
9393;DHT22;4736;52.508;13.422;2023-02-19T07:12:08;3.10;76.20
9393;DHT22;4736;52.508;13.422;2023-02-19T07:15:11;3.10;76.40
9393;DHT22;4736;52.508;13.422;2023-02-19T07:18:14;3.20;76.00
9393;DHT22;4736;52.508;13.422;2023-02-19T07:21:17;3.10;75.80
9393;DHT22;4736;52.508;13.422;2023-02-19T07:24:21;3.10;75.50
9393;DHT22;4736;52.508;13.422;2023-02-19T07:27:25;3.10;75.70
9393;DHT22;4736;52.508;13.422;2023-02-19T07:30:28;3.10;75.20
9393;DHT22;4736;52.508;13.422;2023-02-19T07:33:34;3.30;75.00
9393;DHT22;4736;52.508;13.422;2023-02-19T07:36:38;3.30;74.40
9393;DHT22;4736;52.508;13.422;2023-02-19T07:39:41;3.30;74.50
9393;DHT22;4736;52.508;13.422;2023-02-19T07:42:45;3.40;74.20
9393;DHT22;4736;52.508;13.422;2023-02-19T07:45:49;3.50;73.70
9393;DHT22;4736;52.508;13.422;2023-02-19T07:48:54;3.50;73.60
9393;DHT22;4736;52.508;13.422;2023-02-19T07:51:58;3.50;73.50
9393;DHT22;4736;52.508;13.422;2023-02-19T07:55:01;3.50;73.20
9393;DHT22;4736;52.508;13.422;2023-02-19T07:58:05;3.50;73.20
9393;DHT22;4736;52.508;13.422;2023-02-19T08:01:13;3.50;73.20
9393;DHT22;4736;52.508;13.422;2023-02-19T08:04:16;3.60;72.30
9393;DHT22;4736;52.508;13.422;2023-02-19T08:07:18;3.50;72.50
9393;DHT22;4736;52.508;13.422;2023-02-19T08:10:22;3.60;72.60
9393;DHT22;4736;52.508;13.422;2023-02-19T08:13:46;3.60;72.40
9393;DHT22;4736;52.508;13.422;2023-02-19T08:16:49;3.60;72.60
9393;DHT22;4736;52.508;13.422;2023-02-19T08:19:53;3.60;72.30
9393;DHT22;4736;52.508;13.422;2023-02-19T08:22:56;3.60;72.30
9393;DHT22;4736;52.508;13.422;2023-02-19T08:26:00;3.70;72.30
9393;DHT22;4736;52.508;13.422;2023-02-19T08:29:05;3.80;72.50
9393;DHT22;4736;52.508;13.422;2023-02-19T08:32:08;3.90;72.80
9393;DHT22;4736;52.508;13.422;2023-02-19T08:35:11;3.90;72.50
9393;DHT22;4736;52.508;13.422;2023-02-19T08:38:14;3.90;72.20
9393;DHT22;4736;52.508;13.422;2023-02-19T08:41:18;3.90;72.50
9393;DHT22;4736;52.508;13.422;2023-02-19T08:44:22;3.90;72.40
9393;DHT22;4736;52.508;13.422;2023-02-19T08:47:25;4.00;72.40
9393;DHT22;4736;52.508;13.422;2023-02-19T08:50:28;4.00;71.70
9393;DHT22;4736;52.508;13.422;2023-02-19T08:53:35;4.10;71.90
9393;DHT22;4736;52.508;13.422;2023-02-19T08:56:38;4.30;71.60
9393;DHT22;4736;52.508;13.422;2023-02-19T08:59:43;4.50;71.50
9393;DHT22;4736;52.508;13.422;2023-02-19T09:02:46;4.60;70.70
9393;DHT22;4736;52.508;13.422;2023-02-19T09:05:49;4.50;70.30
9393;DHT22;4736;52.508;13.422;2023-02-19T09:08:52;4.60;70.10
9393;DHT22;4736;52.508;13.422;2023-02-19T09:11:57;4.50;69.40
9393;DHT22;4736;52.508;13.422;2023-02-19T09:15:03;4.50;69.40
9393;DHT22;4736;52.508;13.422;2023-02-19T09:18:06;4.50;69.90
9393;DHT22;4736;52.508;13.422;2023-02-19T09:21:09;4.70;69.80
9393;DHT22;4736;52.508;13.422;2023-02-19T09:24:12;4.70;70.20
9393;DHT22;4736;52.508;13.422;2023-02-19T09:27:17;4.90;70.30
9393;DHT22;4736;52.508;13.422;2023-02-19T09:30:23;5.00;68.90
9393;DHT22;4736;52.508;13.422;2023-02-19T09:33:26;5.10;68.50
9393;DHT22;4736;52.508;13.422;2023-02-19T09:36:29;5.10;68.60
9393;DHT22;4736;52.508;13.422;2023-02-19T09:39:35;5.10;68.10
9393;DHT22;4736;52.508;13.422;2023-02-19T09:42:40;5.10;68.20
9393;DHT22;4736;52.508;13.422;2023-02-19T09:45:46;5.00;68.40
9393;DHT22;4736;52.508;13.422;2023-02-19T09:48:50;5.10;67.90
9393;DHT22;4736;52.508;13.422;2023-02-19T09:51:57;5.10;68.30
9393;DHT22;4736;52.508;13.422;2023-02-19T09:55:09;5.20;67.80
9393;DHT22;4736;52.508;13.422;2023-02-19T09:58:22;5.30;68.00
9393;DHT22;4736;52.508;13.422;2023-02-19T10:01:32;5.30;67.50
9393;DHT22;4736;52.508;13.422;2023-02-19T10:04:41;5.50;66.70
9393;DHT22;4736;52.508;13.422;2023-02-19T10:07:46;5.40;66.70
9393;DHT22;4736;52.508;13.422;2023-02-19T10:10:50;5.30;66.70
9393;DHT22;4736;52.508;13.422;2023-02-19T10:14:00;5.30;67.00
9393;DHT22;4736;52.508;13.422;2023-02-19T10:17:12;5.50;66.20
9393;DHT22;4736;52.508;13.422;2023-02-19T10:20:19;5.60;65.10
9393;DHT22;4736;52.508;13.422;2023-02-19T10:23:25;5.80;64.50
9393;DHT22;4736;52.508;13.422;2023-02-19T10:26:28;6.00;65.60
9393;DHT22;4736;52.508;13.422;2023-02-19T10:29:36;6.20;64.30
9393;DHT22;4736;52.508;13.422;2023-02-19T10:32:57;6.40;63.70
9393;DHT22;4736;52.508;13.422;2023-02-19T10:36:03;6.60;62.50
9393;DHT22;4736;52.508;13.422;2023-02-19T10:39:33;6.60;62.70
9393;DHT22;4736;52.508;13.422;2023-02-19T10:42:44;6.60;61.20
9393;DHT22;4736;52.508;13.422;2023-02-19T10:45:48;6.50;61.90
9393;DHT22;4736;52.508;13.422;2023-02-19T10:48:56;6.30;62.10
9393;DHT22;4736;52.508;13.422;2023-02-19T10:52:03;6.30;62.10
9393;DHT22;4736;52.508;13.422;2023-02-19T10:55:25;6.50;61.90
9393;DHT22;4736;52.508;13.422;2023-02-19T10:58:29;6.70;61.80
9393;DHT22;4736;52.508;13.422;2023-02-19T11:01:35;6.90;61.30
9393;DHT22;4736;52.508;13.422;2023-02-19T11:04:40;7.30;60.60
9393;DHT22;4736;52.508;13.422;2023-02-19T11:07:46;7.20;59.20
9393;DHT22;4736;52.508;13.422;2023-02-19T11:10:50;7.20;58.70
9393;DHT22;4736;52.508;13.422;2023-02-19T11:13:53;7.20;58.70
9393;DHT22;4736;52.508;13.422;2023-02-19T11:16:58;7.40;58.90
9393;DHT22;4736;52.508;13.422;2023-02-19T11:20:08;7.50;58.70
9393;DHT22;4736;52.508;13.422;2023-02-19T11:23:19;7.50;58.40
9393;DHT22;4736;52.508;13.422;2023-02-19T11:26:26;7.80;57.60
9393;DHT22;4736;52.508;13.422;2023-02-19T11:29:30;7.80;56.70
9393;DHT22;4736;52.508;13.422;2023-02-19T11:32:35;8.00;57.40
9393;DHT22;4736;52.508;13.422;2023-02-19T11:35:40;8.10;56.60
9393;DHT22;4736;52.508;13.422;2023-02-19T11:38:44;7.80;55.60
9393;DHT22;4736;52.508;13.422;2023-02-19T11:42:03;7.50;56.10
9393;DHT22;4736;52.508;13.422;2023-02-19T11:45:19;7.40;56.70
9393;DHT22;4736;52.508;13.422;2023-02-19T11:52:06;7.00;56.90
9393;DHT22;4736;52.508;13.422;2023-02-19T11:55:20;6.80;56.80
9393;DHT22;4736;52.508;13.422;2023-02-19T12:02:15;6.50;57.90
9393;DHT22;4736;52.508;13.422;2023-02-19T12:05:31;6.40;57.50
9393;DHT22;4736;52.508;13.422;2023-02-19T12:08:55;6.50;56.80
9393;DHT22;4736;52.508;13.422;2023-02-19T12:12:26;6.40;57.50
9393;DHT22;4736;52.508;13.422;2023-02-19T12:15:41;6.40;56.60
9393;DHT22;4736;52.508;13.422;2023-02-19T12:19:28;6.20;56.50
9393;DHT22;4736;52.508;13.422;2023-02-19T12:22:37;5.90;57.10
9393;DHT22;4736;52.508;13.422;2023-02-19T12:25:55;5.90;57.40
9393;DHT22;4736;52.508;13.422;2023-02-19T12:29:12;5.90;57.70
9393;DHT22;4736;52.508;13.422;2023-02-19T12:32:46;5.90;58.20
9393;DHT22;4736;52.508;13.422;2023-02-19T12:36:02;5.90;57.80
9393;DHT22;4736;52.508;13.422;2023-02-19T12:39:16;6.00;56.60
9393;DHT22;4736;52.508;13.422;2023-02-19T12:42:40;6.00;56.90
9393;DHT22;4736;52.508;13.422;2023-02-19T12:45:51;5.90;56.90
9393;DHT22;4736;52.508;13.422;2023-02-19T12:48:58;5.90;57.00
9393;DHT22;4736;52.508;13.422;2023-02-19T12:52:08;5.90;57.10
9393;DHT22;4736;52.508;13.422;2023-02-19T12:55:20;5.90;57.20
9393;DHT22;4736;52.508;13.422;2023-02-19T12:58:27;5.70;57.40
9393;DHT22;4736;52.508;13.422;2023-02-19T13:01:34;5.60;57.90
9393;DHT22;4736;52.508;13.422;2023-02-19T13:04:46;5.60;58.20
9393;DHT22;4736;52.508;13.422;2023-02-19T13:07:57;5.60;58.40
9393;DHT22;4736;52.508;13.422;2023-02-19T13:11:04;5.50;57.70
9393;DHT22;4736;52.508;13.422;2023-02-19T13:14:14;5.60;57.70
9393;DHT22;4736;52.508;13.422;2023-02-19T13:17:24;5.60;57.50
9393;DHT22;4736;52.508;13.422;2023-02-19T13:20:30;5.60;57.00
9393;DHT22;4736;52.508;13.422;2023-02-19T13:23:35;5.70;56.40
9393;DHT22;4736;52.508;13.422;2023-02-19T13:27:09;5.70;57.20
9393;DHT22;4736;52.508;13.422;2023-02-19T13:30:34;5.80;56.70
9393;DHT22;4736;52.508;13.422;2023-02-19T13:33:46;5.90;57.10
9393;DHT22;4736;52.508;13.422;2023-02-19T13:36:55;6.00;56.40
9393;DHT22;4736;52.508;13.422;2023-02-19T13:40:05;6.10;56.80
9393;DHT22;4736;52.508;13.422;2023-02-19T13:43:23;6.20;56.50
9393;DHT22;4736;52.508;13.422;2023-02-19T13:46:35;6.50;56.40
9393;DHT22;4736;52.508;13.422;2023-02-19T13:49:40;6.90;56.20
9393;DHT22;4736;52.508;13.422;2023-02-19T13:52:48;7.20;55.20
9393;DHT22;4736;52.508;13.422;2023-02-19T13:55:51;7.60;55.50
9393;DHT22;4736;52.508;13.422;2023-02-19T13:58:56;7.60;54.20
9393;DHT22;4736;52.508;13.422;2023-02-19T14:02:11;7.60;53.90
9393;DHT22;4736;52.508;13.422;2023-02-19T14:05:58;7.50;52.70
9393;DHT22;4736;52.508;13.422;2023-02-19T14:09:02;7.10;52.00
9393;DHT22;4736;52.508;13.422;2023-02-19T14:12:18;6.80;53.00
9393;DHT22;4736;52.508;13.422;2023-02-19T14:15:40;6.50;53.70
9393;DHT22;4736;52.508;13.422;2023-02-19T14:18:46;6.50;53.70
9393;DHT22;4736;52.508;13.422;2023-02-19T14:21:51;6.40;54.10
9393;DHT22;4736;52.508;13.422;2023-02-19T14:24:54;6.40;54.30
9393;DHT22;4736;52.508;13.422;2023-02-19T14:28:01;6.30;54.10
9393;DHT22;4736;52.508;13.422;2023-02-19T14:31:25;6.30;54.00
9393;DHT22;4736;52.508;13.422;2023-02-19T14:34:31;6.20;54.30
9393;DHT22;4736;52.508;13.422;2023-02-19T14:37:34;6.30;54.30
9393;DHT22;4736;52.508;13.422;2023-02-19T14:40:38;6.60;54.60
9393;DHT22;4736;52.508;13.422;2023-02-19T14:43:44;6.60;54.10
9393;DHT22;4736;52.508;13.422;2023-02-19T14:46:53;6.70;53.50
9393;DHT22;4736;52.508;13.422;2023-02-19T14:50:02;6.80;54.10
9393;DHT22;4736;52.508;13.422;2023-02-19T14:53:08;6.80;54.00
9393;DHT22;4736;52.508;13.422;2023-02-19T14:56:19;6.90;53.30
9393;DHT22;4736;52.508;13.422;2023-02-19T14:59:29;6.90;53.20
9393;DHT22;4736;52.508;13.422;2023-02-19T15:02:40;6.70;54.00
9393;DHT22;4736;52.508;13.422;2023-02-19T15:05:45;6.50;54.10
9393;DHT22;4736;52.508;13.422;2023-02-19T15:08:52;6.40;54.10
9393;DHT22;4736;52.508;13.422;2023-02-19T15:11:57;6.30;54.10
9393;DHT22;4736;52.508;13.422;2023-02-19T15:15:03;6.20;54.20
9393;DHT22;4736;52.508;13.422;2023-02-19T15:18:06;6.20;53.60
9393;DHT22;4736;52.508;13.422;2023-02-19T15:21:20;6.10;53.90
9393;DHT22;4736;52.508;13.422;2023-02-19T15:24:24;6.00;53.20
9393;DHT22;4736;52.508;13.422;2023-02-19T15:27:29;5.90;53.60
9393;DHT22;4736;52.508;13.422;2023-02-19T15:30:33;5.90;54.20
9393;DHT22;4736;52.508;13.422;2023-02-19T15:33:36;5.80;54.10
9393;DHT22;4736;52.508;13.422;2023-02-19T15:36:41;5.80;54.60
9393;DHT22;4736;52.508;13.422;2023-02-19T15:39:45;5.70;54.00
9393;DHT22;4736;52.508;13.422;2023-02-19T15:42:49;5.60;53.60
9393;DHT22;4736;52.508;13.422;2023-02-19T15:45:56;5.60;52.70
9393;DHT22;4736;52.508;13.422;2023-02-19T15:49:06;5.50;52.70
9393;DHT22;4736;52.508;13.422;2023-02-19T15:52:23;5.50;53.60
9393;DHT22;4736;52.508;13.422;2023-02-19T15:55:33;5.40;53.50
9393;DHT22;4736;52.508;13.422;2023-02-19T15:58:40;5.30;53.90
9393;DHT22;4736;52.508;13.422;2023-02-19T16:01:44;5.30;54.00
9393;DHT22;4736;52.508;13.422;2023-02-19T16:04:48;5.20;54.80
9393;DHT22;4736;52.508;13.422;2023-02-19T16:08:07;5.20;54.80
9393;DHT22;4736;52.508;13.422;2023-02-19T16:11:26;5.10;55.10
9393;DHT22;4736;52.508;13.422;2023-02-19T16:14:31;5.10;55.20
9393;DHT22;4736;52.508;13.422;2023-02-19T16:17:34;5.00;55.70
9393;DHT22;4736;52.508;13.422;2023-02-19T16:20:37;5.00;56.10
9393;DHT22;4736;52.508;13.422;2023-02-19T16:23:42;5.00;56.00
9393;DHT22;4736;52.508;13.422;2023-02-19T16:26:49;5.00;55.70
9393;DHT22;4736;52.508;13.422;2023-02-19T16:29:52;4.90;56.10
9393;DHT22;4736;52.508;13.422;2023-02-19T16:33:30;4.90;56.00
9393;DHT22;4736;52.508;13.422;2023-02-19T16:36:36;4.80;56.30
9393;DHT22;4736;52.508;13.422;2023-02-19T16:39:43;4.80;56.20
9393;DHT22;4736;52.508;13.422;2023-02-19T16:46:23;4.70;56.80
9393;DHT22;4736;52.508;13.422;2023-02-19T16:49:26;4.60;57.20
9393;DHT22;4736;52.508;13.422;2023-02-19T16:52:29;4.60;57.20
9393;DHT22;4736;52.508;13.422;2023-02-19T16:55:34;4.50;57.50
9393;DHT22;4736;52.508;13.422;2023-02-19T16:58:37;4.50;57.60
9393;DHT22;4736;52.508;13.422;2023-02-19T17:01:40;4.50;57.80
9393;DHT22;4736;52.508;13.422;2023-02-19T17:04:45;4.50;58.00
9393;DHT22;4736;52.508;13.422;2023-02-19T17:07:49;4.40;58.10
9393;DHT22;4736;52.508;13.422;2023-02-19T17:10:54;4.40;58.30
9393;DHT22;4736;52.508;13.422;2023-02-19T17:13:57;4.30;58.20
9393;DHT22;4736;52.508;13.422;2023-02-19T17:17:00;4.30;58.40
9393;DHT22;4736;52.508;13.422;2023-02-19T17:20:18;4.20;58.70
9393;DHT22;4736;52.508;13.422;2023-02-19T17:23:22;4.20;58.80
9393;DHT22;4736;52.508;13.422;2023-02-19T17:26:28;4.20;58.60
9393;DHT22;4736;52.508;13.422;2023-02-19T17:29:31;4.10;58.80
9393;DHT22;4736;52.508;13.422;2023-02-19T17:32:37;4.10;59.00
9393;DHT22;4736;52.508;13.422;2023-02-19T17:35:40;4.00;59.20
9393;DHT22;4736;52.508;13.422;2023-02-19T17:38:45;4.10;59.00
9393;DHT22;4736;52.508;13.422;2023-02-19T17:41:50;4.10;59.10
9393;DHT22;4736;52.508;13.422;2023-02-19T17:44:53;4.10;59.00
9393;DHT22;4736;52.508;13.422;2023-02-19T17:48:00;4.10;59.30
9393;DHT22;4736;52.508;13.422;2023-02-19T17:51:03;4.10;59.60
9393;DHT22;4736;52.508;13.422;2023-02-19T17:54:07;4.10;59.80
9393;DHT22;4736;52.508;13.422;2023-02-19T17:57:11;4.10;60.00
9393;DHT22;4736;52.508;13.422;2023-02-19T18:00:16;4.00;60.10
9393;DHT22;4736;52.508;13.422;2023-02-19T18:03:19;4.00;60.20
9393;DHT22;4736;52.508;13.422;2023-02-19T18:06:22;4.00;60.40
9393;DHT22;4736;52.508;13.422;2023-02-19T18:09:25;4.00;60.60
9393;DHT22;4736;52.508;13.422;2023-02-19T18:12:30;4.10;60.70
9393;DHT22;4736;52.508;13.422;2023-02-19T18:15:33;4.10;60.60
9393;DHT22;4736;52.508;13.422;2023-02-19T18:18:36;4.10;60.10
9393;DHT22;4736;52.508;13.422;2023-02-19T18:21:39;4.10;60.30
9393;DHT22;4736;52.508;13.422;2023-02-19T18:24:44;4.10;60.70
9393;DHT22;4736;52.508;13.422;2023-02-19T18:27:50;4.10;60.80
9393;DHT22;4736;52.508;13.422;2023-02-19T18:30:53;4.10;60.80
9393;DHT22;4736;52.508;13.422;2023-02-19T18:33:57;4.20;61.00
9393;DHT22;4736;52.508;13.422;2023-02-19T18:37:00;4.10;60.90
9393;DHT22;4736;52.508;13.422;2023-02-19T18:40:07;4.00;61.20
9393;DHT22;4736;52.508;13.422;2023-02-19T18:43:14;4.00;61.20
9393;DHT22;4736;52.508;13.422;2023-02-19T18:46:20;4.00;61.60
9393;DHT22;4736;52.508;13.422;2023-02-19T18:49:23;3.90;61.40
9393;DHT22;4736;52.508;13.422;2023-02-19T18:52:27;4.00;61.40
9393;DHT22;4736;52.508;13.422;2023-02-19T18:55:30;3.90;61.50
9393;DHT22;4736;52.508;13.422;2023-02-19T18:58:34;3.90;62.00
9393;DHT22;4736;52.508;13.422;2023-02-19T19:01:37;3.90;62.00
9393;DHT22;4736;52.508;13.422;2023-02-19T19:04:41;4.00;61.70
9393;DHT22;4736;52.508;13.422;2023-02-19T19:07:44;4.00;61.60
9393;DHT22;4736;52.508;13.422;2023-02-19T19:10:47;4.00;61.70
9393;DHT22;4736;52.508;13.422;2023-02-19T19:13:52;4.00;61.70
9393;DHT22;4736;52.508;13.422;2023-02-19T19:16:55;3.90;62.10
9393;DHT22;4736;52.508;13.422;2023-02-19T19:19:58;3.90;62.20
9393;DHT22;4736;52.508;13.422;2023-02-19T19:23:01;3.90;62.20
9393;DHT22;4736;52.508;13.422;2023-02-19T19:26:06;3.90;62.60
9393;DHT22;4736;52.508;13.422;2023-02-19T19:29:11;3.80;62.80
9393;DHT22;4736;52.508;13.422;2023-02-19T19:32:16;3.80;62.90
9393;DHT22;4736;52.508;13.422;2023-02-19T19:35:20;3.70;62.90
9393;DHT22;4736;52.508;13.422;2023-02-19T19:38:23;3.70;62.90
9393;DHT22;4736;52.508;13.422;2023-02-19T19:41:26;3.70;63.00
9393;DHT22;4736;52.508;13.422;2023-02-19T19:44:31;3.70;63.00
9393;DHT22;4736;52.508;13.422;2023-02-19T19:47:34;3.70;63.00
9393;DHT22;4736;52.508;13.422;2023-02-19T19:50:38;3.70;63.20
9393;DHT22;4736;52.508;13.422;2023-02-19T19:53:41;3.60;63.50
9393;DHT22;4736;52.508;13.422;2023-02-19T19:56:46;3.70;63.50
9393;DHT22;4736;52.508;13.422;2023-02-19T19:59:52;3.70;63.40
9393;DHT22;4736;52.508;13.422;2023-02-19T20:02:55;3.80;63.30
9393;DHT22;4736;52.508;13.422;2023-02-19T20:05:58;3.70;63.50
9393;DHT22;4736;52.508;13.422;2023-02-19T20:09:02;3.70;63.50
9393;DHT22;4736;52.508;13.422;2023-02-19T20:12:05;3.60;63.60
9393;DHT22;4736;52.508;13.422;2023-02-19T20:15:11;3.60;63.80
9393;DHT22;4736;52.508;13.422;2023-02-19T20:18:15;3.60;63.80
9393;DHT22;4736;52.508;13.422;2023-02-19T20:21:18;3.60;63.90
9393;DHT22;4736;52.508;13.422;2023-02-19T20:24:23;3.60;63.70
9393;DHT22;4736;52.508;13.422;2023-02-19T20:27:29;3.60;63.80
9393;DHT22;4736;52.508;13.422;2023-02-19T20:30:33;3.60;64.00
9393;DHT22;4736;52.508;13.422;2023-02-19T20:33:37;3.60;63.80